• Join FlightAware (Why Join?)
  • Login
  • US Flag 
12:36AM EDT


 

Airport Tracker/Info


-or-


 

Live Flight TrackerFlight Track Log ✈ SKW5564 ✈ 10-Jul-2013 ✈ KSLC - KDEN

Flight Track Log - Related Links

Times and Time Zones

All times are in EDT time to prevent confusion due to time zone crossing. See the SKW5564 flight status page for this flight to view local times or setup timezone preferences in your user account.

Time Position Orientation Groundspeed Altitude Reporting Facility
EDT Latitude Longitude Course Direction KTS MPH feet Rate Location/Type
04:23PM 40.7692 -111.9750 103° East 175 201 5,000  Level Salt Lake Center
04:23PM 40.7494 -111.9958 219° Southwest 190 219 5,900 1,320 Climbing Salt Lake Center
04:24PM 40.7561 -112.0731 277° West 246 283 6,900 1,140 Climbing Salt Lake Center
04:25PM 40.9874 -112.2333 North  Level FlightAware Approximate
04:25PM 40.7819 -112.1006 321° Northwest 266 306 7,600  Level Salt Lake Center
04:25PM 40.8181 -112.1483 315° West 278 320 9,200 1,920 Climbing Salt Lake Center
04:26PM 41.0164 -112.0822 108° East  Level FlightAware Approximate
04:27PM 40.9753 -111.9219 103° East  Level FlightAware Approximate
04:27PM 40.9058 -112.2311 325° Northwest 306 352 11,600  Level Salt Lake Center
04:28PM 40.9454 -111.7570 103° East  Level FlightAware Approximate
04:28PM 40.9661 -112.1589 42° Northeast 318 366 13,400  Level Salt Lake Center
04:29PM 40.9594 -112.0439 94° East 319 367 15,600 1,920 Climbing Salt Lake Center
04:30PM 40.9481 -111.9011 96° East 339 390 17,400 1,500 Climbing Salt Lake Center
04:31PM 40.9369 -111.7744 97° East 364 419 18,700 1,260 Climbing Salt Lake Center
04:32PM 40.9258 -111.6372 96° East 383 441 20,100 1,320 Climbing Salt Lake Center
04:33PM 40.9161 -111.4953 95° East 393 452 21,500 1,440 Climbing Salt Lake Center
04:34PM 40.9011 -111.3194 96° East 403 464 23,100 1,500 Climbing Salt Lake Center
04:35PM 40.8822 -111.1697 99° East 412 474 24,600 1,440 Climbing Salt Lake Center
04:36PM 40.8639 -111.0181 99° East 419 482 26,100 1,440 Climbing Salt Lake Center
04:37PM 40.8450 -110.8644 99° East 424 488 27,600 1,440 Climbing Salt Lake Center
04:38PM 40.8258 -110.7117 99° East 422 486 29,100 1,200 Climbing Salt Lake Center
04:39PM 40.8058 -110.5492 99° East 427 491 30,200 1,020 Climbing Salt Lake Center
04:40PM 40.7836 -110.3719 99° East 436 502 31,300 960 Climbing Salt Lake Center
04:41PM 40.7642 -110.2175 99° East 444 511 32,200 960 Climbing Salt Lake Center
04:42PM 40.7397 -110.0358 100° East 449 517 33,300 780 Climbing Salt Lake Center
04:43PM 40.7286 -109.8733 95° East 460 529 33,800 540 Climbing Salt Lake Center
04:44PM 40.7156 -109.6789 95° East 475 547 34,500 660 Climbing Salt Lake Center
04:45PM 40.7042 -109.5103 95° East 481 554 35,200 840 Climbing Salt Lake Center
04:46PM 40.6894 -109.3136 96° East 481 554 36,300 900 Climbing Salt Lake Center
04:47PM 40.6772 -109.1544 96° East 478 550 37,100 840 Climbing Salt Lake Center
04:48PM 40.6689 -109.0367 95° East 473 544 37,700 780 Climbing Denver Center
04:49PM 40.6556 -108.8728 96° East 468 539 38,400 600 Climbing Denver Center
04:50PM 40.6408 -108.6836 96° East 464 534 39,000 240 Climbing Denver Center
04:51PM 40.6275 -108.5214 96° East 463 533 39,000  Level Denver Center
04:52PM 40.6086 -108.3000 96° East 473 544 39,000  Level Denver Center
04:53PM 40.5936 -108.1289 97° East 487 560 39,000  Level Denver Center
04:54PM 40.5767 -107.9281 96° East 493 567 39,000 -360 Level Denver Center
04:55PM 40.5611 -107.7531 97° East 499 574 38,300 -900 Descending Denver Center
04:56PM 40.5422 -107.5436 97° East 512 589 37,200 -1,020 Descending Denver Center
04:57PM 40.5253 -107.3639 97° East 516 594 36,200 -1,020 Descending Denver Center
04:59PM 40.5117 -107.1742 95° East 516 594 35,200 -1,020 Descending Denver Center
05:00PM 40.5044 -106.9861 93° East 514 592 34,200 -1,020 Descending Denver Center
05:01PM 40.4931 -106.8006 95° East 509 586 33,100 -1,020 Descending Denver Center
05:02PM 40.4833 -106.6183 94° East 501 577 32,100 -720 Descending Denver Center
05:03PM 40.4717 -106.4211 94° East 501 577 31,600 -660 Descending Denver Center
05:04PM 40.4614 -106.2181 94° East 497 572 30,800 -960 Descending Denver Center
05:05PM 40.4481 -106.0308 95° East 508 585 29,700 -1,140 Descending Denver Center
05:06PM 40.4258 -105.8450 99° East 511 588 28,500 -2,400 Descending Denver Center
05:07PM 40.3942 -105.6753 104° East 479 551 24,800 -3,840 Descending Denver Center
05:08PM 40.3694 -105.5128 101° East 462 532 20,600 -2,820 Descending Denver Center
05:09PM 40.3183 -105.3678 115° Southeast 386 444 19,000 -720 Descending Denver Center
05:10PM 40.2567 -105.2767 132° Southeast 337 388 19,000  Level Denver Center
05:11PM 40.1797 -105.1594 131° Southeast 346 398 19,000 -600 Level Denver Center
05:12PM 40.1133 -105.0567 130° Southeast 343 395 17,800 -960 Descending Denver Center
05:13PM 40.0544 -104.9639 130° Southeast 335 386 17,000 -840 Descending Denver Center
05:14PM 40.0019 -104.8836 130° Southeast 288 331 16,100 -1,140 Descending Denver Center
05:15PM 39.9394 -104.8156 140° Southeast 273 314 14,700 -1,200 Descending Denver Center
05:16PM 39.8669 -104.8089 176° South 269 310 13,600 -1,200 Descending Denver Center
05:17PM 39.7897 -104.8164 184° South 261 300 12,200 -1,140 Descending Denver Center
05:18PM 39.7219 -104.8236 185° South 248 285 11,300 -1,200 Descending Denver Center
05:19PM 39.6858 -104.7714 132° Southeast 231 266 9,800 -1,500 Descending Denver Center
05:20PM 39.7375 -104.7242 35° Northeast 228 262 8,200 -1,560 Descending Denver Center